KERV/ERV METAR and TAF weather

Enter ICAO airport designator
Station Type Date Time Source
KERV METAR 2021/04/13 21:35 UTC NOAA

KERV 132135Z AUTO 10006KT 10SM BKN050 OVC065 28/15 A2992 RMK AO2 T02790154


Station Type Date Time Source
KERV Decoded METAR 2021/04/13 21:35 UTC NOAA

Kerrville, Kerrville Municipal Airport/Louis Schreiner Field, TX, United States (KERV) 29-58N 099-05W
Apr 13, 2021 - 05:35 PM EDT / 2021.04.13 2135 UTC
Wind: from the E (100 degrees) at 7 MPH (6 KT):0
Visibility: 10 mile(s):0
Sky conditions: overcast
Temperature: 82.2 F (27.9 C)
Dew Point: 59.7 F (15.4 C)
Relative Humidity: 46%
Pressure (altimeter): 29.92 in. Hg (1013 hPa)
ob: KERV 132135Z AUTO 10006KT 10SM BKN050 OVC065 28/15 A2992 RMK AO2 T02790154
cycle: 21

Station Type Date Time Source
KERV TAF UTC NOAA

Error!

Example: see airport list